Prather, California
Current Conditions -  °F | °C
As of 3:53 PM on Friday 24 Oct 2014 (Local Time) from KFAT Reporting Station
Clear Clear  
Wind Chill: 86°   Ceiling: Unl
Heat Index: 86°   Visibility: 9mi
Dew Point: 44°   Wind: 6mph
Humidity: 23%   Direction: 130°SE
Pressure: 29.88"   Gusts: NA
Location:  37.04°N, 119.51°W
Report Text: KFAT 242253Z 13005KT 9SM CLR 30/07 A2988 RMK AO2 SLP115 MTNS PTLY OBSC HZ DSNT N-E-SE T03000067
Loading
Personal Weather Stations






























Interactive Weather Map
Tropical Storm Tracking
New forecast layout! Learn more

10-Day Weather Forecast

Advertisements
Track Severe Weather on mobile